createdAt,value
2022-12-08T00:00:41.736Z,1.2
2022-12-08T00:05:41.526Z,1.1
2022-12-08T00:10:48.782Z,1.1
2022-12-08T00:15:41.488Z,1.1
2022-12-08T00:20:41.541Z,1.1
2022-12-08T00:25:41.780Z,1
2022-12-08T00:30:41.574Z,1.1
2022-12-08T00:35:43.170Z,1.1
2022-12-08T00:40:41.539Z,1.1
2022-12-08T00:45:41.597Z,1
2022-12-08T00:50:41.831Z,1.1
2022-12-08T00:55:41.593Z,1
2022-12-08T01:00:42.218Z,1
2022-12-08T01:05:41.495Z,1.1
2022-12-08T01:10:41.507Z,1.1
2022-12-08T01:20:42.317Z,1.1
2022-12-08T01:25:41.653Z,1
2022-12-08T01:30:41.927Z,1.1
2022-12-08T01:35:41.509Z,1.1
2022-12-08T01:40:41.550Z,1.1
2022-12-08T01:45:43.097Z,1
2022-12-08T01:50:41.586Z,0.9
2022-12-08T01:55:41.683Z,0.9
2022-12-08T02:00:41.790Z,0.8
2022-12-08T02:05:41.535Z,0.8
2022-12-08T02:10:41.739Z,0.8
2022-12-08T02:15:41.565Z,0.8
2022-12-08T02:20:41.786Z,0.9
2022-12-08T02:25:41.546Z,0.8
2022-12-08T02:30:42.320Z,0.9
2022-12-08T02:35:41.565Z,0.8
2022-12-08T02:40:41.809Z,0.9
2022-12-08T02:45:41.685Z,0.8
2022-12-08T02:50:41.793Z,0.8
2022-12-08T02:55:41.603Z,0.6
2022-12-08T03:00:41.932Z,0.7
2022-12-08T03:05:41.579Z,0.6
2022-12-08T03:10:41.827Z,0.4
2022-12-08T03:15:41.618Z,0.4
2022-12-08T03:20:41.775Z,0.3
2022-12-08T03:25:41.559Z,0.3
2022-12-08T03:30:41.840Z,0.3
2022-12-08T03:35:41.583Z,0.3
2022-12-08T03:40:41.788Z,0.2
2022-12-08T03:45:41.566Z,0.1
2022-12-08T03:50:41.794Z,-0.1
2022-12-08T03:55:41.675Z,-0.2
2022-12-08T04:00:41.803Z,-0.1
2022-12-08T04:05:41.754Z,-0.1
2022-12-08T04:10:41.750Z,-0.1
2022-12-08T04:15:41.599Z,0
2022-12-08T04:20:41.963Z,0
2022-12-08T04:35:42.007Z,0
2022-12-08T04:40:41.647Z,0
2022-12-08T04:45:41.777Z,0
2022-12-08T04:50:41.930Z,0
2022-12-08T04:55:41.541Z,0
2022-12-08T05:00:41.921Z,0.1
2022-12-08T05:05:41.711Z,0.1
2022-12-08T05:10:41.880Z,0
2022-12-08T05:15:41.954Z,0.1
2022-12-08T05:20:41.599Z,0
2022-12-08T05:25:41.804Z,0
2022-12-08T05:30:41.573Z,0.1
2022-12-08T05:35:41.896Z,0
2022-12-08T05:40:41.727Z,0.1
2022-12-08T05:45:41.839Z,0.1
2022-12-08T05:50:41.589Z,0
2022-12-08T05:55:41.840Z,0
2022-12-08T06:00:41.569Z,-0.1
2022-12-08T06:05:42.017Z,0
2022-12-08T06:10:41.522Z,0
2022-12-08T06:15:41.840Z,0
2022-12-08T06:20:41.669Z,0
2022-12-08T06:25:41.835Z,-0.1
2022-12-08T06:30:41.581Z,-0.1
2022-12-08T06:35:41.679Z,-0.1
2022-12-08T06:40:41.823Z,-0.1
2022-12-08T06:45:41.582Z,-0.1
2022-12-08T06:50:41.836Z,-0.1
2022-12-08T06:55:58.195Z,-0.1
2022-12-08T07:00:41.596Z,-0.1
2022-12-08T07:05:41.827Z,-0.1
2022-12-08T07:10:41.659Z,0
2022-12-08T07:15:41.837Z,0
2022-12-08T07:20:41.570Z,-0.1
2022-12-08T07:25:41.912Z,0.1
2022-12-08T07:30:41.594Z,0.1
2022-12-08T07:35:45.064Z,0.1
2022-12-08T07:40:41.739Z,0.1
2022-12-08T07:45:41.650Z,0
2022-12-08T07:50:41.886Z,0
2022-12-08T07:55:41.746Z,0.1
2022-12-08T08:00:41.938Z,0.1
2022-12-08T08:05:41.562Z,0.1
2022-12-08T08:10:41.808Z,0.2
2022-12-08T08:15:41.829Z,0.3
2022-12-08T08:20:41.616Z,0.3
2022-12-08T08:25:41.872Z,0.3
2022-12-08T08:30:41.865Z,0.4
2022-12-08T08:35:41.757Z,0.4
2022-12-08T08:40:41.857Z,0.6
2022-12-08T08:45:41.619Z,0.6
2022-12-08T08:50:41.627Z,0.6
2022-12-08T08:55:41.837Z,0.7
2022-12-08T09:00:41.644Z,0.7
2022-12-08T09:05:41.876Z,0.8
2022-12-08T09:10:41.660Z,0.8
2022-12-08T09:15:41.646Z,0.8
2022-12-08T09:20:41.830Z,1
2022-12-08T09:25:41.729Z,1.1
2022-12-08T09:30:41.988Z,1.2
2022-12-08T09:35:41.771Z,1.1
2022-12-08T09:40:41.658Z,1.2
2022-12-08T09:45:41.864Z,1.4
2022-12-08T09:50:41.741Z,1.4
2022-12-08T09:55:41.900Z,1.6
2022-12-08T10:00:41.725Z,1.6
2022-12-08T10:05:41.715Z,1.8
2022-12-08T10:10:41.644Z,1.9
2022-12-08T10:15:41.726Z,2.1
2022-12-08T10:20:42.003Z,2
2022-12-08T10:25:41.594Z,2.3
2022-12-08T10:30:41.820Z,2.5
2022-12-08T10:35:41.742Z,2.6
2022-12-08T10:40:45.538Z,2.9
2022-12-08T10:45:41.691Z,2.9
2022-12-08T10:50:41.641Z,3.2
2022-12-08T10:55:41.854Z,3.3
2022-12-08T11:00:41.742Z,3.4
2022-12-08T11:05:41.979Z,3.6
2022-12-08T11:10:41.796Z,3.4
2022-12-08T11:15:41.702Z,3.7
2022-12-08T11:20:41.675Z,3.8
2022-12-08T11:25:41.824Z,3.9
2022-12-08T11:30:41.725Z,3.8
2022-12-08T11:35:41.830Z,3.9
2022-12-08T11:40:41.836Z,3.8
2022-12-08T11:45:41.717Z,3.9
2022-12-08T11:50:41.670Z,3.8
2022-12-08T11:55:44.032Z,3.7
2022-12-08T12:00:41.610Z,3.6
2022-12-08T12:06:05.734Z,3.4
2022-12-08T12:10:42.058Z,3.3
2022-12-08T12:15:41.671Z,3.6
2022-12-08T12:20:41.808Z,3.8
2022-12-08T12:25:41.803Z,3.9
2022-12-08T12:30:41.731Z,3.4
2022-12-08T12:35:41.835Z,3.4
2022-12-08T12:40:41.820Z,3.1
2022-12-08T12:45:41.930Z,2.9
2022-12-08T12:50:41.664Z,2.8
2022-12-08T12:55:41.983Z,2.9
2022-12-08T13:00:41.680Z,2.9
2022-12-08T13:05:41.694Z,2.9
2022-12-08T13:10:41.894Z,2.6
2022-12-08T13:15:41.936Z,2.6
2022-12-08T13:20:41.775Z,2.4
2022-12-08T13:25:42.067Z,2.5
2022-12-08T13:30:41.673Z,2.4
2022-12-08T13:35:41.769Z,2.4
2022-12-08T13:40:42.133Z,2.4
2022-12-08T13:46:48.610Z,2.6
2022-12-08T14:00:41.652Z,2.6
2022-12-08T14:06:10.833Z,2.8
2022-12-08T14:16:14.707Z,2.3
2022-12-08T14:25:41.855Z,2.3
2022-12-08T14:30:41.715Z,2.3
2022-12-08T14:35:41.696Z,2.3
2022-12-08T14:40:41.731Z,2.3
2022-12-08T14:45:41.651Z,2.2
2022-12-08T14:50:42.358Z,2
2022-12-08T14:55:41.809Z,1.8
2022-12-08T15:00:41.966Z,1.6
2022-12-08T15:05:41.719Z,1.6
2022-12-08T15:10:41.795Z,1.4
2022-12-08T15:15:41.995Z,1.1
2022-12-08T15:20:41.774Z,1.1
2022-12-08T15:25:41.993Z,0.9
2022-12-08T15:30:41.712Z,0.8
2022-12-08T15:35:41.678Z,0.7
2022-12-08T15:40:41.994Z,0.3
2022-12-08T15:45:51.923Z,0
2022-12-08T15:50:41.733Z,-0.3
2022-12-08T15:55:53.161Z,-0.4
2022-12-08T16:00:52.759Z,-0.6
2022-12-08T16:05:49.974Z,-0.7
2022-12-08T16:11:24.020Z,-0.8
2022-12-08T16:15:55.412Z,-0.8
2022-12-08T16:21:07.337Z,-0.9
2022-12-08T16:26:16.020Z,-1
2022-12-08T16:30:42.182Z,-0.8
2022-12-08T16:35:41.744Z,-0.8
2022-12-08T16:40:41.859Z,-0.7
2022-12-08T16:45:44.891Z,-0.9
2022-12-08T16:50:41.750Z,-0.9
2022-12-08T16:55:42.067Z,-1
2022-12-08T17:00:41.809Z,-0.9
2022-12-08T17:05:41.993Z,-0.9
2022-12-08T17:20:42.045Z,-0.9
2022-12-08T17:25:41.841Z,-0.9
2022-12-08T17:30:41.648Z,-0.9
2022-12-08T17:35:41.724Z,-0.8
2022-12-08T17:50:42.081Z,-0.6
2022-12-08T17:55:41.817Z,-0.4
2022-12-08T18:00:41.743Z,-0.4
2022-12-08T18:05:41.987Z,-0.3
2022-12-08T18:10:41.801Z,-0.3
2022-12-08T18:15:41.949Z,-0.3
2022-12-08T18:20:41.804Z,-0.3
2022-12-08T18:25:41.971Z,-0.3
2022-12-08T18:30:41.778Z,-0.2
2022-12-08T18:35:42.139Z,-0.1
2022-12-08T18:40:41.778Z,-0.2
2022-12-08T18:46:10.833Z,-0.2
2022-12-08T18:50:41.754Z,-0.2
2022-12-08T18:55:41.858Z,-0.2
2022-12-08T19:00:41.922Z,-0.2
2022-12-08T19:05:41.741Z,-0.3
2022-12-08T19:10:41.969Z,-0.3
2022-12-08T19:15:41.850Z,-0.3
2022-12-08T19:20:42.099Z,-0.3
2022-12-08T19:25:41.930Z,-0.3
2022-12-08T19:30:42.057Z,-0.2
2022-12-08T19:35:42.281Z,-0.1
2022-12-08T19:40:41.865Z,-0.2
2022-12-08T19:46:01.221Z,-0.1
2022-12-08T19:50:41.737Z,-0.3
2022-12-08T19:55:42.028Z,-0.1
2022-12-08T20:00:41.750Z,-0.2
2022-12-08T20:05:41.753Z,-0.2
2022-12-08T20:10:42.076Z,-0.3
2022-12-08T20:15:41.823Z,-0.3
2022-12-08T20:20:42.045Z,-0.2
2022-12-08T20:25:41.787Z,-0.1
2022-12-08T20:30:42.024Z,-0.2
2022-12-08T20:35:41.828Z,-0.2
2022-12-08T20:40:42.011Z,-0.2
2022-12-08T20:46:01.891Z,-0.2
2022-12-08T20:50:41.796Z,-0.2
2022-12-08T20:55:42.054Z,-0.2
2022-12-08T21:00:42.056Z,-0.2
2022-12-08T21:05:42.073Z,-0.2
2022-12-08T21:10:43.898Z,-0.2
2022-12-08T21:15:42.245Z,-0.1
2022-12-08T21:20:41.993Z,-0.2
2022-12-08T21:25:42.022Z,-0.2
2022-12-08T21:30:41.780Z,-0.1
2022-12-08T21:35:41.811Z,-0.1
2022-12-08T21:40:42.205Z,-0.1
2022-12-08T21:46:02.489Z,-0.1
2022-12-08T21:50:42.003Z,0
2022-12-08T21:55:42.155Z,0
2022-12-08T22:00:41.869Z,0
2022-12-08T22:05:42.140Z,0.1
2022-12-08T22:10:41.966Z,0
2022-12-08T22:15:41.920Z,0.1
2022-12-08T22:20:44.021Z,0.1
2022-12-08T22:25:41.813Z,0.1
2022-12-08T22:30:42.175Z,0.2
2022-12-08T22:35:42.009Z,0.1
2022-12-08T22:40:42.003Z,0.1
2022-12-08T22:46:08.662Z,0
2022-12-08T22:50:42.056Z,-0.1
2022-12-08T22:55:42.208Z,-0.1
2022-12-08T23:00:42.079Z,-0.2
2022-12-08T23:05:42.340Z,-0.2
2022-12-08T23:10:41.869Z,-0.3
2022-12-08T23:15:42.089Z,-0.6
2022-12-08T23:20:41.856Z,-0.7
2022-12-08T23:25:42.156Z,-0.9
2022-12-08T23:30:41.868Z,-0.9
2022-12-08T23:35:42.018Z,-1
2022-12-08T23:40:41.807Z,-1.1
2022-12-08T23:46:06.375Z,-1.2
2022-12-08T23:50:42.056Z,-1.4
2022-12-08T23:55:41.908Z,-1.6
